sensor_id;sensor_type;location;lat;lon;timestamp;P1;durP1;ratioP1;P2;durP2;ratioP2
70818;SDS011;58439;51.046;13.692;2023-03-02T00:01:54;68.57;;;30.23;;
70818;SDS011;58439;51.046;13.692;2023-03-02T00:04:36;62.78;;;28.42;;
70818;SDS011;58439;51.046;13.692;2023-03-02T00:07:11;65.20;;;30.20;;
70818;SDS011;58439;51.046;13.692;2023-03-02T00:09:45;74.20;;;30.02;;
70818;SDS011;58439;51.046;13.692;2023-03-02T00:12:12;74.00;;;30.45;;
70818;SDS011;58439;51.046;13.692;2023-03-02T00:14:41;63.25;;;29.27;;
70818;SDS011;58439;51.046;13.692;2023-03-02T00:17:08;62.70;;;29.17;;
70818;SDS011;58439;51.046;13.692;2023-03-02T00:19:38;66.25;;;28.08;;
70818;SDS011;58439;51.046;13.692;2023-03-02T00:22:06;67.45;;;28.48;;
70818;SDS011;58439;51.046;13.692;2023-03-02T00:24:36;66.70;;;29.35;;
70818;SDS011;58439;51.046;13.692;2023-03-02T00:27:03;68.57;;;29.83;;
70818;SDS011;58439;51.046;13.692;2023-03-02T00:29:30;68.15;;;29.13;;
70818;SDS011;58439;51.046;13.692;2023-03-02T00:31:57;63.63;;;27.85;;
70818;SDS011;58439;51.046;13.692;2023-03-02T00:34:24;65.10;;;28.90;;
70818;SDS011;58439;51.046;13.692;2023-03-02T00:36:51;68.00;;;29.75;;
70818;SDS011;58439;51.046;13.692;2023-03-02T00:39:21;69.50;;;29.67;;
70818;SDS011;58439;51.046;13.692;2023-03-02T00:41:55;59.78;;;27.65;;
70818;SDS011;58439;51.046;13.692;2023-03-02T00:44:22;64.43;;;28.35;;
70818;SDS011;58439;51.046;13.692;2023-03-02T00:46:50;67.30;;;28.60;;
70818;SDS011;58439;51.046;13.692;2023-03-02T00:49:17;67.05;;;30.23;;
70818;SDS011;58439;51.046;13.692;2023-03-02T00:51:44;68.05;;;29.35;;
70818;SDS011;58439;51.046;13.692;2023-03-02T00:54:11;70.38;;;28.23;;
70818;SDS011;58439;51.046;13.692;2023-03-02T01:00:07;70.18;;;28.92;;
70818;SDS011;58439;51.046;13.692;2023-03-02T01:02:44;72.55;;;31.30;;
70818;SDS011;58439;51.046;13.692;2023-03-02T01:05:15;72.85;;;30.13;;
70818;SDS011;58439;51.046;13.692;2023-03-02T01:07:42;73.10;;;31.13;;
70818;SDS011;58439;51.046;13.692;2023-03-02T01:10:10;72.05;;;29.85;;
70818;SDS011;58439;51.046;13.692;2023-03-02T01:12:40;65.85;;;28.90;;
70818;SDS011;58439;51.046;13.692;2023-03-02T01:15:10;64.50;;;30.15;;
70818;SDS011;58439;51.046;13.692;2023-03-02T01:17:38;69.82;;;28.85;;
70818;SDS011;58439;51.046;13.692;2023-03-02T01:20:07;68.78;;;27.55;;
70818;SDS011;58439;51.046;13.692;2023-03-02T01:22:36;66.38;;;26.85;;
70818;SDS011;58439;51.046;13.692;2023-03-02T01:25:03;62.30;;;27.77;;
70818;SDS011;58439;51.046;13.692;2023-03-02T01:27:31;71.97;;;28.20;;
70818;SDS011;58439;51.046;13.692;2023-03-02T01:29:58;66.47;;;28.05;;
70818;SDS011;58439;51.046;13.692;2023-03-02T01:32:34;62.60;;;27.63;;
70818;SDS011;58439;51.046;13.692;2023-03-02T01:35:01;68.82;;;26.85;;
70818;SDS011;58439;51.046;13.692;2023-03-02T01:37:29;60.63;;;26.65;;
70818;SDS011;58439;51.046;13.692;2023-03-02T01:39:56;59.35;;;25.15;;
70818;SDS011;58439;51.046;13.692;2023-03-02T01:42:23;56.90;;;25.27;;
70818;SDS011;58439;51.046;13.692;2023-03-02T01:44:52;54.45;;;23.90;;
70818;SDS011;58439;51.046;13.692;2023-03-02T01:47:26;58.45;;;26.27;;
70818;SDS011;58439;51.046;13.692;2023-03-02T01:50:20;61.42;;;26.23;;
70818;SDS011;58439;51.046;13.692;2023-03-02T01:52:55;68.35;;;27.05;;
70818;SDS011;58439;51.046;13.692;2023-03-02T01:55:24;57.92;;;26.92;;
70818;SDS011;58439;51.046;13.692;2023-03-02T01:57:56;69.68;;;26.05;;
70818;SDS011;58439;51.046;13.692;2023-03-02T02:00:27;61.00;;;26.90;;
70818;SDS011;58439;51.046;13.692;2023-03-02T02:03:13;73.18;;;29.05;;
70818;SDS011;58439;51.046;13.692;2023-03-02T02:05:58;64.63;;;26.42;;
70818;SDS011;58439;51.046;13.692;2023-03-02T02:08:47;65.78;;;27.88;;
70818;SDS011;58439;51.046;13.692;2023-03-02T02:11:16;60.92;;;25.77;;
70818;SDS011;58439;51.046;13.692;2023-03-02T02:13:48;64.03;;;27.50;;
70818;SDS011;58439;51.046;13.692;2023-03-02T02:16:19;62.95;;;28.30;;
70818;SDS011;58439;51.046;13.692;2023-03-02T02:18:46;70.03;;;27.85;;
70818;SDS011;58439;51.046;13.692;2023-03-02T02:21:13;65.93;;;27.40;;
70818;SDS011;58439;51.046;13.692;2023-03-02T02:29:37;59.58;;;25.83;;
70818;SDS011;58439;51.046;13.692;2023-03-02T02:32:12;61.03;;;26.67;;
70818;SDS011;58439;51.046;13.692;2023-03-02T02:34:50;61.15;;;26.75;;
70818;SDS011;58439;51.046;13.692;2023-03-02T02:37:31;65.30;;;26.30;;
70818;SDS011;58439;51.046;13.692;2023-03-02T02:40:10;66.70;;;27.85;;
70818;SDS011;58439;51.046;13.692;2023-03-02T02:42:45;67.20;;;28.30;;
70818;SDS011;58439;51.046;13.692;2023-03-02T02:45:23;64.50;;;26.88;;
70818;SDS011;58439;51.046;13.692;2023-03-02T02:47:53;69.68;;;29.42;;
70818;SDS011;58439;51.046;13.692;2023-03-02T02:50:22;62.70;;;26.48;;
70818;SDS011;58439;51.046;13.692;2023-03-02T02:53:03;57.75;;;24.83;;
70818;SDS011;58439;51.046;13.692;2023-03-02T02:55:38;65.07;;;25.90;;
70818;SDS011;58439;51.046;13.692;2023-03-02T03:00:58;65.32;;;28.60;;
70818;SDS011;58439;51.046;13.692;2023-03-02T03:03:28;67.95;;;28.70;;
70818;SDS011;58439;51.046;13.692;2023-03-02T03:06:06;71.20;;;27.63;;
70818;SDS011;58439;51.046;13.692;2023-03-02T03:11:53;67.00;;;28.63;;
70818;SDS011;58439;51.046;13.692;2023-03-02T03:14:43;62.28;;;27.20;;
70818;SDS011;58439;51.046;13.692;2023-03-02T03:17:11;64.63;;;27.98;;
70818;SDS011;58439;51.046;13.692;2023-03-02T03:19:49;67.55;;;28.30;;
70818;SDS011;58439;51.046;13.692;2023-03-02T03:22:36;65.25;;;28.30;;
70818;SDS011;58439;51.046;13.692;2023-03-02T03:25:06;58.15;;;27.63;;
70818;SDS011;58439;51.046;13.692;2023-03-02T03:27:33;64.38;;;27.67;;
70818;SDS011;58439;51.046;13.692;2023-03-02T03:30:02;67.25;;;29.42;;
70818;SDS011;58439;51.046;13.692;2023-03-02T03:32:39;65.53;;;28.10;;
70818;SDS011;58439;51.046;13.692;2023-03-02T03:35:07;70.55;;;28.75;;
70818;SDS011;58439;51.046;13.692;2023-03-02T03:37:38;66.43;;;28.45;;
70818;SDS011;58439;51.046;13.692;2023-03-02T03:40:08;64.85;;;27.33;;
70818;SDS011;58439;51.046;13.692;2023-03-02T03:42:39;63.20;;;27.60;;
70818;SDS011;58439;51.046;13.692;2023-03-02T03:45:07;69.28;;;27.77;;
70818;SDS011;58439;51.046;13.692;2023-03-02T03:47:35;64.45;;;26.40;;
70818;SDS011;58439;51.046;13.692;2023-03-02T03:50:04;56.75;;;25.60;;
70818;SDS011;58439;51.046;13.692;2023-03-02T03:52:40;63.35;;;26.35;;
70818;SDS011;58439;51.046;13.692;2023-03-02T03:55:13;68.38;;;29.90;;
70818;SDS011;58439;51.046;13.692;2023-03-02T03:57:42;75.82;;;30.95;;
70818;SDS011;58439;51.046;13.692;2023-03-02T04:00:11;73.40;;;29.65;;
70818;SDS011;58439;51.046;13.692;2023-03-02T04:03:02;68.88;;;29.25;;
70818;SDS011;58439;51.046;13.692;2023-03-02T04:05:41;74.85;;;29.98;;
70818;SDS011;58439;51.046;13.692;2023-03-02T04:08:08;69.22;;;30.20;;
70818;SDS011;58439;51.046;13.692;2023-03-02T04:10:37;68.18;;;30.27;;
70818;SDS011;58439;51.046;13.692;2023-03-02T04:13:06;69.90;;;29.55;;
70818;SDS011;58439;51.046;13.692;2023-03-02T04:15:34;73.70;;;30.95;;
70818;SDS011;58439;51.046;13.692;2023-03-02T04:18:02;70.03;;;30.23;;
70818;SDS011;58439;51.046;13.692;2023-03-02T04:20:30;67.85;;;28.52;;
70818;SDS011;58439;51.046;13.692;2023-03-02T04:22:58;58.45;;;26.88;;
70818;SDS011;58439;51.046;13.692;2023-03-02T04:25:26;64.20;;;28.40;;
70818;SDS011;58439;51.046;13.692;2023-03-02T04:28:15;67.65;;;27.65;;
70818;SDS011;58439;51.046;13.692;2023-03-02T04:30:46;63.22;;;27.38;;
70818;SDS011;58439;51.046;13.692;2023-03-02T04:33:13;64.38;;;27.58;;
70818;SDS011;58439;51.046;13.692;2023-03-02T04:35:43;68.18;;;29.63;;
70818;SDS011;58439;51.046;13.692;2023-03-02T04:38:10;72.03;;;29.50;;
70818;SDS011;58439;51.046;13.692;2023-03-02T04:40:37;75.25;;;31.45;;
70818;SDS011;58439;51.046;13.692;2023-03-02T04:43:04;74.72;;;31.40;;
70818;SDS011;58439;51.046;13.692;2023-03-02T04:45:32;66.45;;;30.30;;
70818;SDS011;58439;51.046;13.692;2023-03-02T04:48:02;66.28;;;29.30;;
70818;SDS011;58439;51.046;13.692;2023-03-02T04:50:30;71.20;;;30.83;;
70818;SDS011;58439;51.046;13.692;2023-03-02T04:52:57;72.82;;;30.80;;
70818;SDS011;58439;51.046;13.692;2023-03-02T04:55:25;73.78;;;30.38;;
70818;SDS011;58439;51.046;13.692;2023-03-02T04:57:53;80.00;;;32.00;;
70818;SDS011;58439;51.046;13.692;2023-03-02T05:00:20;73.05;;;31.50;;
70818;SDS011;58439;51.046;13.692;2023-03-02T05:02:50;75.45;;;30.95;;
70818;SDS011;58439;51.046;13.692;2023-03-02T05:05:20;66.53;;;29.42;;
70818;SDS011;58439;51.046;13.692;2023-03-02T05:07:50;71.22;;;29.42;;
70818;SDS011;58439;51.046;13.692;2023-03-02T05:10:18;66.88;;;29.40;;
70818;SDS011;58439;51.046;13.692;2023-03-02T05:12:49;67.22;;;28.80;;
70818;SDS011;58439;51.046;13.692;2023-03-02T05:15:32;73.60;;;31.23;;
70818;SDS011;58439;51.046;13.692;2023-03-02T05:18:05;71.43;;;30.42;;
70818;SDS011;58439;51.046;13.692;2023-03-02T05:20:34;76.80;;;31.08;;
70818;SDS011;58439;51.046;13.692;2023-03-02T05:23:03;79.90;;;32.78;;
70818;SDS011;58439;51.046;13.692;2023-03-02T05:25:35;68.82;;;30.00;;
70818;SDS011;58439;51.046;13.692;2023-03-02T05:28:03;67.93;;;30.42;;
70818;SDS011;58439;51.046;13.692;2023-03-02T05:30:31;76.50;;;30.25;;
70818;SDS011;58439;51.046;13.692;2023-03-02T05:33:03;76.50;;;32.33;;
70818;SDS011;58439;51.046;13.692;2023-03-02T05:35:33;70.13;;;30.10;;
70818;SDS011;58439;51.046;13.692;2023-03-02T05:38:00;75.57;;;30.42;;
70818;SDS011;58439;51.046;13.692;2023-03-02T05:40:28;71.65;;;30.90;;
70818;SDS011;58439;51.046;13.692;2023-03-02T05:42:55;67.60;;;30.23;;
70818;SDS011;58439;51.046;13.692;2023-03-02T05:49:13;71.50;;;29.65;;
70818;SDS011;58439;51.046;13.692;2023-03-02T05:51:40;74.20;;;29.83;;
70818;SDS011;58439;51.046;13.692;2023-03-02T05:54:30;65.25;;;28.40;;
70818;SDS011;58439;51.046;13.692;2023-03-02T05:59:51;62.28;;;27.52;;
70818;SDS011;58439;51.046;13.692;2023-03-02T06:02:19;65.40;;;28.50;;
70818;SDS011;58439;51.046;13.692;2023-03-02T06:04:48;72.95;;;30.60;;
70818;SDS011;58439;51.046;13.692;2023-03-02T06:07:17;71.13;;;31.05;;
70818;SDS011;58439;51.046;13.692;2023-03-02T06:09:44;70.60;;;31.33;;
70818;SDS011;58439;51.046;13.692;2023-03-02T06:12:11;70.03;;;30.05;;
70818;SDS011;58439;51.046;13.692;2023-03-02T06:14:43;75.78;;;31.55;;
70818;SDS011;58439;51.046;13.692;2023-03-02T06:17:11;80.80;;;32.30;;
70818;SDS011;58439;51.046;13.692;2023-03-02T06:19:39;71.97;;;30.98;;
70818;SDS011;58439;51.046;13.692;2023-03-02T06:22:06;81.88;;;32.15;;
70818;SDS011;58439;51.046;13.692;2023-03-02T06:24:33;81.13;;;34.38;;
70818;SDS011;58439;51.046;13.692;2023-03-02T06:27:01;77.15;;;32.83;;
70818;SDS011;58439;51.046;13.692;2023-03-02T06:29:28;76.70;;;32.20;;
70818;SDS011;58439;51.046;13.692;2023-03-02T06:31:58;69.70;;;30.08;;
70818;SDS011;58439;51.046;13.692;2023-03-02T06:34:25;71.47;;;30.45;;
70818;SDS011;58439;51.046;13.692;2023-03-02T06:36:54;80.15;;;30.88;;
70818;SDS011;58439;51.046;13.692;2023-03-02T06:39:22;77.28;;;31.02;;
70818;SDS011;58439;51.046;13.692;2023-03-02T06:41:49;66.65;;;28.80;;
70818;SDS011;58439;51.046;13.692;2023-03-02T06:44:20;78.97;;;30.80;;
70818;SDS011;58439;51.046;13.692;2023-03-02T06:46:48;65.38;;;29.70;;
70818;SDS011;58439;51.046;13.692;2023-03-02T06:49:33;75.03;;;31.17;;
70818;SDS011;58439;51.046;13.692;2023-03-02T06:52:00;74.75;;;29.90;;
70818;SDS011;58439;51.046;13.692;2023-03-02T06:54:27;73.38;;;33.00;;
70818;SDS011;58439;51.046;13.692;2023-03-02T06:56:55;77.50;;;32.38;;
70818;SDS011;58439;51.046;13.692;2023-03-02T06:59:23;80.03;;;31.95;;
70818;SDS011;58439;51.046;13.692;2023-03-02T07:01:50;75.78;;;29.92;;
70818;SDS011;58439;51.046;13.692;2023-03-02T07:04:18;71.88;;;31.30;;
70818;SDS011;58439;51.046;13.692;2023-03-02T07:06:46;71.47;;;30.35;;
70818;SDS011;58439;51.046;13.692;2023-03-02T07:09:14;73.78;;;30.15;;
70818;SDS011;58439;51.046;13.692;2023-03-02T07:11:41;74.47;;;30.70;;
70818;SDS011;58439;51.046;13.692;2023-03-02T07:14:08;69.95;;;29.00;;
70818;SDS011;58439;51.046;13.692;2023-03-02T07:16:36;70.20;;;29.45;;
70818;SDS011;58439;51.046;13.692;2023-03-02T07:19:03;68.50;;;30.23;;
70818;SDS011;58439;51.046;13.692;2023-03-02T07:21:42;66.03;;;26.42;;
70818;SDS011;58439;51.046;13.692;2023-03-02T07:24:09;67.65;;;29.25;;
70818;SDS011;58439;51.046;13.692;2023-03-02T07:26:36;70.35;;;31.17;;
70818;SDS011;58439;51.046;13.692;2023-03-02T07:29:04;63.90;;;26.63;;
70818;SDS011;58439;51.046;13.692;2023-03-02T07:31:31;62.28;;;28.67;;
70818;SDS011;58439;51.046;13.692;2023-03-02T07:33:59;69.15;;;27.25;;
70818;SDS011;58439;51.046;13.692;2023-03-02T07:36:26;67.13;;;26.88;;
70818;SDS011;58439;51.046;13.692;2023-03-02T07:38:53;61.83;;;27.33;;
70818;SDS011;58439;51.046;13.692;2023-03-02T07:41:21;68.07;;;28.05;;
70818;SDS011;58439;51.046;13.692;2023-03-02T07:43:48;69.78;;;27.77;;
70818;SDS011;58439;51.046;13.692;2023-03-02T07:46:15;63.10;;;27.55;;
70818;SDS011;58439;51.046;13.692;2023-03-02T07:48:45;64.00;;;28.30;;
70818;SDS011;58439;51.046;13.692;2023-03-02T07:51:35;67.93;;;30.42;;
70818;SDS011;58439;51.046;13.692;2023-03-02T07:54:08;69.85;;;29.90;;
70818;SDS011;58439;51.046;13.692;2023-03-02T07:56:37;67.38;;;29.25;;
70818;SDS011;58439;51.046;13.692;2023-03-02T07:59:04;66.88;;;26.92;;
70818;SDS011;58439;51.046;13.692;2023-03-02T08:01:43;68.55;;;28.50;;
70818;SDS011;58439;51.046;13.692;2023-03-02T08:04:13;69.82;;;28.73;;
70818;SDS011;58439;51.046;13.692;2023-03-02T08:06:43;65.40;;;28.75;;
70818;SDS011;58439;51.046;13.692;2023-03-02T08:09:10;62.08;;;28.13;;
70818;SDS011;58439;51.046;13.692;2023-03-02T08:11:41;65.30;;;27.88;;
70818;SDS011;58439;51.046;13.692;2023-03-02T08:14:08;64.30;;;30.38;;
70818;SDS011;58439;51.046;13.692;2023-03-02T08:16:36;61.83;;;28.25;;
70818;SDS011;58439;51.046;13.692;2023-03-02T08:19:05;60.50;;;28.90;;
70818;SDS011;58439;51.046;13.692;2023-03-02T08:21:33;62.95;;;28.30;;
70818;SDS011;58439;51.046;13.692;2023-03-02T08:24:08;62.30;;;28.65;;
70818;SDS011;58439;51.046;13.692;2023-03-02T08:26:39;71.43;;;28.50;;
70818;SDS011;58439;51.046;13.692;2023-03-02T08:37:07;64.60;;;27.40;;
70818;SDS011;58439;51.046;13.692;2023-03-02T08:39:34;73.65;;;29.75;;
70818;SDS011;58439;51.046;13.692;2023-03-02T08:42:17;68.32;;;29.23;;
70818;SDS011;58439;51.046;13.692;2023-03-02T08:50:24;76.97;;;28.15;;
70818;SDS011;58439;51.046;13.692;2023-03-02T08:57:45;76.63;;;28.48;;
70818;SDS011;58439;51.046;13.692;2023-03-02T09:03:49;72.72;;;28.52;;
70818;SDS011;58439;51.046;13.692;2023-03-02T09:06:43;62.67;;;27.48;;
70818;SDS011;58439;51.046;13.692;2023-03-02T09:10:58;60.95;;;26.48;;
70818;SDS011;58439;51.046;13.692;2023-03-02T09:13:28;63.65;;;27.05;;
70818;SDS011;58439;51.046;13.692;2023-03-02T09:16:36;86.55;;;37.20;;
70818;SDS011;58439;51.046;13.692;2023-03-02T09:19:53;85.60;;;34.63;;
70818;SDS011;58439;51.046;13.692;2023-03-02T09:23:12;68.75;;;27.55;;
70818;SDS011;58439;51.046;13.692;2023-03-02T09:26:27;60.08;;;25.63;;
70818;SDS011;58439;51.046;13.692;2023-03-02T09:29:47;116.15;;;31.20;;
70818;SDS011;58439;51.046;13.692;2023-03-02T09:33:11;62.47;;;27.25;;
70818;SDS011;58439;51.046;13.692;2023-03-02T09:40:26;73.97;;;28.63;;
70818;SDS011;58439;51.046;13.692;2023-03-02T09:56:35;96.88;;;29.90;;
70818;SDS011;58439;51.046;13.692;2023-03-02T09:59:49;84.20;;;27.73;;
70818;SDS011;58439;51.046;13.692;2023-03-02T10:11:49;57.97;;;23.73;;
70818;SDS011;58439;51.046;13.692;2023-03-02T10:31:37;62.13;;;22.90;;
70818;SDS011;58439;51.046;13.692;2023-03-02T10:35:18;59.35;;;22.75;;
70818;SDS011;58439;51.046;13.692;2023-03-02T10:37:50;52.35;;;20.63;;
70818;SDS011;58439;51.046;13.692;2023-03-02T10:40:37;45.58;;;20.60;;
70818;SDS011;58439;51.046;13.692;2023-03-02T10:46:07;48.40;;;20.52;;
70818;SDS011;58439;51.046;13.692;2023-03-02T10:50:41;53.53;;;19.80;;
70818;SDS011;58439;51.046;13.692;2023-03-02T10:54:15;50.05;;;20.65;;
70818;SDS011;58439;51.046;13.692;2023-03-02T11:07:17;190.70;;;32.15;;
70818;SDS011;58439;51.046;13.692;2023-03-02T11:10:39;37.42;;;16.10;;
70818;SDS011;58439;51.046;13.692;2023-03-02T11:16:19;33.10;;;16.13;;
70818;SDS011;58439;51.046;13.692;2023-03-02T11:18:57;35.95;;;14.43;;
70818;SDS011;58439;51.046;13.692;2023-03-02T11:21:38;39.28;;;15.73;;
70818;SDS011;58439;51.046;13.692;2023-03-02T11:24:14;28.58;;;15.23;;
70818;SDS011;58439;51.046;13.692;2023-03-02T11:26:51;35.03;;;15.80;;
70818;SDS011;58439;51.046;13.692;2023-03-02T11:32:03;36.95;;;14.13;;
70818;SDS011;58439;51.046;13.692;2023-03-02T11:38:15;27.52;;;12.55;;
70818;SDS011;58439;51.046;13.692;2023-03-02T11:50:15;34.72;;;13.43;;
70818;SDS011;58439;51.046;13.692;2023-03-02T11:58:03;24.27;;;11.43;;
70818;SDS011;58439;51.046;13.692;2023-03-02T12:58:27;27.40;;;11.38;;
70818;SDS011;58439;51.046;13.692;2023-03-02T13:16:22;21.08;;;12.60;;
70818;SDS011;58439;51.046;13.692;2023-03-02T13:18:55;22.08;;;11.27;;
70818;SDS011;58439;51.046;13.692;2023-03-02T13:21:29;25.92;;;12.85;;
70818;SDS011;58439;51.046;13.692;2023-03-02T13:24:18;27.52;;;13.25;;
70818;SDS011;58439;51.046;13.692;2023-03-02T13:27:16;25.55;;;13.38;;
70818;SDS011;58439;51.046;13.692;2023-03-02T13:30:18;29.48;;;15.05;;
70818;SDS011;58439;51.046;13.692;2023-03-02T13:34:43;28.98;;;14.73;;
70818;SDS011;58439;51.046;13.692;2023-03-02T13:37:36;32.28;;;14.85;;
70818;SDS011;58439;51.046;13.692;2023-03-02T13:42:49;22.70;;;10.85;;
70818;SDS011;58439;51.046;13.692;2023-03-02T13:45:24;23.98;;;13.60;;
70818;SDS011;58439;51.046;13.692;2023-03-02T13:48:13;27.23;;;15.05;;
70818;SDS011;58439;51.046;13.692;2023-03-02T13:50:55;40.63;;;16.67;;
70818;SDS011;58439;51.046;13.692;2023-03-02T13:54:41;26.00;;;14.73;;
70818;SDS011;58439;51.046;13.692;2023-03-02T14:18:46;28.25;;;15.05;;
70818;SDS011;58439;51.046;13.692;2023-03-02T14:46:13;30.40;;;16.20;;
70818;SDS011;58439;51.046;13.692;2023-03-02T15:15:19;23.95;;;13.52;;
70818;SDS011;58439;51.046;13.692;2023-03-02T15:17:47;23.15;;;12.13;;
70818;SDS011;58439;51.046;13.692;2023-03-02T15:20:15;27.77;;;13.55;;
70818;SDS011;58439;51.046;13.692;2023-03-02T15:27:42;31.30;;;13.20;;
70818;SDS011;58439;51.046;13.692;2023-03-02T15:30:09;27.02;;;12.20;;
70818;SDS011;58439;51.046;13.692;2023-03-02T16:07:32;32.92;;;12.70;;
70818;SDS011;58439;51.046;13.692;2023-03-02T16:21:10;28.52;;;11.88;;
70818;SDS011;58439;51.046;13.692;2023-03-02T16:26:04;30.42;;;13.38;;
70818;SDS011;58439;51.046;13.692;2023-03-02T16:49:32;54.08;;;14.90;;
70818;SDS011;58439;51.046;13.692;2023-03-02T17:34:30;48.78;;;18.70;;
70818;SDS011;58439;51.046;13.692;2023-03-02T17:48:59;60.38;;;25.88;;
70818;SDS011;58439;51.046;13.692;2023-03-02T17:54:51;62.67;;;25.35;;
70818;SDS011;58439;51.046;13.692;2023-03-02T17:58:25;53.33;;;24.77;;
70818;SDS011;58439;51.046;13.692;2023-03-02T18:03:52;58.60;;;24.23;;
70818;SDS011;58439;51.046;13.692;2023-03-02T18:19:08;54.47;;;22.70;;
70818;SDS011;58439;51.046;13.692;2023-03-02T18:21:36;53.75;;;22.88;;
70818;SDS011;58439;51.046;13.692;2023-03-02T18:24:06;56.35;;;24.73;;
70818;SDS011;58439;51.046;13.692;2023-03-02T18:26:37;53.83;;;24.17;;
70818;SDS011;58439;51.046;13.692;2023-03-02T18:36:37;49.90;;;23.25;;
70818;SDS011;58439;51.046;13.692;2023-03-02T18:39:04;50.80;;;23.30;;
70818;SDS011;58439;51.046;13.692;2023-03-02T18:41:34;55.75;;;24.17;;
70818;SDS011;58439;51.046;13.692;2023-03-02T18:47:20;58.60;;;25.25;;
70818;SDS011;58439;51.046;13.692;2023-03-02T18:49:47;48.92;;;23.80;;
70818;SDS011;58439;51.046;13.692;2023-03-02T19:04:21;63.92;;;24.55;;
70818;SDS011;58439;51.046;13.692;2023-03-02T19:06:52;55.20;;;23.42;;
70818;SDS011;58439;51.046;13.692;2023-03-02T19:12:45;52.88;;;22.92;;
70818;SDS011;58439;51.046;13.692;2023-03-02T19:20:20;52.78;;;21.42;;
70818;SDS011;58439;51.046;13.692;2023-03-02T19:24:47;45.13;;;20.40;;
70818;SDS011;58439;51.046;13.692;2023-03-02T19:28:34;46.85;;;20.08;;
70818;SDS011;58439;51.046;13.692;2023-03-02T19:31:04;44.08;;;19.00;;
70818;SDS011;58439;51.046;13.692;2023-03-02T19:33:34;47.95;;;22.23;;
70818;SDS011;58439;51.046;13.692;2023-03-02T19:36:24;43.78;;;18.90;;
70818;SDS011;58439;51.046;13.692;2023-03-02T19:43:01;45.72;;;20.55;;
70818;SDS011;58439;51.046;13.692;2023-03-02T19:52:22;43.80;;;20.80;;
70818;SDS011;58439;51.046;13.692;2023-03-02T19:54:49;47.90;;;21.35;;
70818;SDS011;58439;51.046;13.692;2023-03-02T19:57:17;48.67;;;21.77;;
70818;SDS011;58439;51.046;13.692;2023-03-02T19:59:44;50.53;;;22.20;;
70818;SDS011;58439;51.046;13.692;2023-03-02T20:02:11;46.90;;;21.55;;
70818;SDS011;58439;51.046;13.692;2023-03-02T20:04:40;50.67;;;22.48;;
70818;SDS011;58439;51.046;13.692;2023-03-02T20:07:08;55.28;;;21.48;;
70818;SDS011;58439;51.046;13.692;2023-03-02T20:09:36;48.83;;;21.48;;
70818;SDS011;58439;51.046;13.692;2023-03-02T20:12:03;49.42;;;21.23;;
70818;SDS011;58439;51.046;13.692;2023-03-02T20:14:31;52.15;;;24.27;;
70818;SDS011;58439;51.046;13.692;2023-03-02T20:17:01;49.85;;;23.50;;
70818;SDS011;58439;51.046;13.692;2023-03-02T20:19:29;54.30;;;24.30;;
70818;SDS011;58439;51.046;13.692;2023-03-02T20:21:57;51.28;;;23.15;;
70818;SDS011;58439;51.046;13.692;2023-03-02T20:24:28;51.50;;;22.05;;
70818;SDS011;58439;51.046;13.692;2023-03-02T20:26:55;53.67;;;23.83;;
70818;SDS011;58439;51.046;13.692;2023-03-02T20:29:23;48.88;;;22.38;;
70818;SDS011;58439;51.046;13.692;2023-03-02T20:31:50;56.35;;;23.73;;
70818;SDS011;58439;51.046;13.692;2023-03-02T20:34:18;51.58;;;24.40;;
70818;SDS011;58439;51.046;13.692;2023-03-02T20:36:53;57.00;;;24.75;;
70818;SDS011;58439;51.046;13.692;2023-03-02T20:45:13;57.42;;;23.85;;
70818;SDS011;58439;51.046;13.692;2023-03-02T20:51:49;55.75;;;23.35;;
70818;SDS011;58439;51.046;13.692;2023-03-02T20:55:25;55.55;;;23.55;;
70818;SDS011;58439;51.046;13.692;2023-03-02T21:02:23;55.33;;;24.50;;
70818;SDS011;58439;51.046;13.692;2023-03-02T21:04:51;55.80;;;24.67;;
70818;SDS011;58439;51.046;13.692;2023-03-02T21:08:32;59.88;;;24.13;;
70818;SDS011;58439;51.046;13.692;2023-03-02T21:11:45;59.93;;;26.27;;
70818;SDS011;58439;51.046;13.692;2023-03-02T21:17:49;62.03;;;25.77;;
70818;SDS011;58439;51.046;13.692;2023-03-02T21:20:27;68.78;;;27.98;;
70818;SDS011;58439;51.046;13.692;2023-03-02T21:22:57;66.53;;;27.33;;
70818;SDS011;58439;51.046;13.692;2023-03-02T21:25:32;60.97;;;26.23;;
70818;SDS011;58439;51.046;13.692;2023-03-02T21:32:36;66.57;;;29.08;;
70818;SDS011;58439;51.046;13.692;2023-03-02T21:35:15;69.82;;;30.45;;
70818;SDS011;58439;51.046;13.692;2023-03-02T21:45:05;67.63;;;29.50;;
70818;SDS011;58439;51.046;13.692;2023-03-02T21:47:34;71.57;;;29.88;;
70818;SDS011;58439;51.046;13.692;2023-03-02T21:50:01;71.20;;;29.88;;
70818;SDS011;58439;51.046;13.692;2023-03-02T21:52:30;75.22;;;29.42;;
70818;SDS011;58439;51.046;13.692;2023-03-02T21:59:30;67.88;;;27.58;;
70818;SDS011;58439;51.046;13.692;2023-03-02T22:01:58;69.80;;;29.52;;
70818;SDS011;58439;51.046;13.692;2023-03-02T22:09:32;73.82;;;28.77;;
70818;SDS011;58439;51.046;13.692;2023-03-02T22:11:59;70.15;;;30.13;;
70818;SDS011;58439;51.046;13.692;2023-03-02T22:14:26;72.03;;;30.67;;
70818;SDS011;58439;51.046;13.692;2023-03-02T22:16:54;69.55;;;30.52;;
70818;SDS011;58439;51.046;13.692;2023-03-02T22:19:22;71.70;;;29.85;;
70818;SDS011;58439;51.046;13.692;2023-03-02T22:21:58;72.97;;;31.38;;
70818;SDS011;58439;51.046;13.692;2023-03-02T22:24:29;74.15;;;31.13;;
70818;SDS011;58439;51.046;13.692;2023-03-02T22:27:40;73.45;;;30.95;;
70818;SDS011;58439;51.046;13.692;2023-03-02T22:31:34;78.47;;;31.55;;
70818;SDS011;58439;51.046;13.692;2023-03-02T22:35:24;72.18;;;31.35;;
70818;SDS011;58439;51.046;13.692;2023-03-02T22:37:55;75.05;;;32.08;;
70818;SDS011;58439;51.046;13.692;2023-03-02T22:41:08;75.97;;;32.35;;
70818;SDS011;58439;51.046;13.692;2023-03-02T22:43:43;80.25;;;32.88;;
70818;SDS011;58439;51.046;13.692;2023-03-02T22:48:43;83.75;;;31.85;;
70818;SDS011;58439;51.046;13.692;2023-03-02T22:51:17;81.13;;;34.08;;
70818;SDS011;58439;51.046;13.692;2023-03-02T22:53:52;76.82;;;32.75;;
70818;SDS011;58439;51.046;13.692;2023-03-02T22:56:28;77.63;;;33.22;;
70818;SDS011;58439;51.046;13.692;2023-03-02T23:01:51;77.97;;;32.92;;
70818;SDS011;58439;51.046;13.692;2023-03-02T23:04:30;78.85;;;34.65;;
70818;SDS011;58439;51.046;13.692;2023-03-02T23:07:10;80.00;;;32.55;;
70818;SDS011;58439;51.046;13.692;2023-03-02T23:09:47;81.30;;;33.42;;
70818;SDS011;58439;51.046;13.692;2023-03-02T23:14:49;87.68;;;35.60;;
70818;SDS011;58439;51.046;13.692;2023-03-02T23:20:05;85.00;;;35.30;;
70818;SDS011;58439;51.046;13.692;2023-03-02T23:22:36;83.60;;;33.65;;
70818;SDS011;58439;51.046;13.692;2023-03-02T23:25:05;92.97;;;35.55;;
70818;SDS011;58439;51.046;13.692;2023-03-02T23:27:34;81.00;;;32.38;;
70818;SDS011;58439;51.046;13.692;2023-03-02T23:30:02;87.55;;;33.90;;
70818;SDS011;58439;51.046;13.692;2023-03-02T23:32:31;82.93;;;35.28;;
70818;SDS011;58439;51.046;13.692;2023-03-02T23:34:58;87.30;;;34.15;;